createdAt,value
2019-05-16T00:00:42.034Z,1.90
2019-05-16T00:03:09.333Z,1.73
2019-05-16T00:05:48.489Z,1.43
2019-05-16T00:08:05.892Z,1.10
2019-05-16T00:10:33.308Z,0.90
2019-05-16T00:13:00.726Z,1.10
2019-05-16T00:15:28.679Z,1.00
2019-05-16T00:17:58.385Z,1.17
2019-05-16T00:20:25.457Z,0.77
2019-05-16T00:22:52.725Z,0.80
2019-05-16T00:25:20.026Z,0.90
2019-05-16T00:27:47.887Z,1.00
2019-05-16T00:30:17.939Z,0.93
2019-05-16T00:32:44.729Z,0.97
2019-05-16T00:35:12.065Z,0.93
2019-05-16T00:37:39.397Z,0.77
2019-05-16T00:40:08.203Z,0.97
2019-05-16T00:42:35.824Z,0.70
2019-05-16T00:45:03.701Z,1.00
2019-05-16T00:47:31.073Z,0.70
2019-05-16T00:49:58.382Z,0.67
2019-05-16T00:52:25.784Z,0.80
2019-05-16T00:54:53.085Z,0.77
2019-05-16T00:57:21.217Z,0.67
2019-05-16T00:59:48.829Z,0.70
2019-05-16T01:02:18.190Z,0.67
2019-05-16T01:04:45.449Z,0.60
2019-05-16T01:07:12.884Z,0.77
2019-05-16T01:09:40.236Z,0.80
2019-05-16T01:12:08.466Z,0.87
2019-05-16T01:14:38.310Z,0.80
2019-05-16T01:17:04.971Z,0.80
2019-05-16T01:19:32.414Z,0.90
2019-05-16T01:21:59.707Z,1.63
2019-05-16T01:24:29.111Z,1.40
2019-05-16T01:26:57.790Z,1.33
2019-05-16T01:29:25.300Z,0.80
2019-05-16T01:31:52.564Z,0.80
2019-05-16T01:34:19.832Z,0.77
2019-05-16T01:36:48.633Z,0.63
2019-05-16T01:39:18.164Z,0.70
2019-05-16T01:41:45.188Z,0.60
2019-05-16T01:44:12.537Z,0.80
2019-05-16T01:46:39.806Z,0.80
2019-05-16T01:49:08.262Z,0.80
2019-05-16T01:51:37.818Z,0.70
2019-05-16T01:54:04.729Z,0.67
2019-05-16T01:56:32.033Z,0.77
2019-05-16T01:58:59.297Z,0.83
2019-05-16T02:01:28.687Z,0.60
2019-05-16T02:03:55.586Z,0.57
2019-05-16T02:06:22.850Z,0.83
2019-05-16T02:08:50.117Z,0.77
2019-05-16T02:11:18.114Z,0.70
2019-05-16T02:13:48.219Z,0.60
2019-05-16T02:16:14.589Z,0.80
2019-05-16T02:18:41.893Z,0.70
2019-05-16T02:21:09.301Z,0.80
2019-05-16T02:23:38.156Z,0.70
2019-05-16T02:26:07.835Z,0.70
2019-05-16T02:28:40.218Z,0.80
2019-05-16T02:31:03.719Z,0.80
2019-05-16T02:33:31.801Z,0.80
2019-05-16T02:36:01.824Z,0.67
2019-05-16T02:38:31.503Z,0.73
2019-05-16T02:40:57.330Z,0.80
2019-05-16T02:43:26.172Z,0.60
2019-05-16T02:45:53.740Z,0.87
2019-05-16T02:48:21.619Z,0.90
2019-05-16T02:50:51.257Z,0.60
2019-05-16T02:53:18.166Z,0.70
2019-05-16T02:55:45.446Z,0.60
2019-05-16T02:58:12.752Z,0.80
2019-05-16T03:00:42.718Z,0.70
2019-05-16T03:03:11.956Z,0.70
2019-05-16T03:05:41.594Z,0.73
2019-05-16T03:08:07.231Z,0.73
2019-05-16T03:10:35.153Z,0.60
2019-05-16T03:13:02.417Z,0.60
2019-05-16T03:15:31.021Z,0.60
2019-05-16T03:18:03.656Z,0.70
2019-05-16T03:20:31.326Z,0.83
2019-05-16T03:22:57.955Z,0.77
2019-05-16T03:25:25.954Z,0.77
2019-05-16T03:27:53.218Z,0.60
2019-05-16T03:30:23.651Z,1.10
2019-05-16T03:32:54.190Z,1.13
2019-05-16T03:35:23.988Z,0.80
2019-05-16T03:37:55.638Z,0.70
2019-05-16T03:40:26.996Z,0.80
2019-05-16T03:42:54.257Z,0.73
2019-05-16T03:45:21.568Z,0.80
2019-05-16T03:47:51.107Z,0.80
2019-05-16T03:50:21.531Z,0.80
2019-05-16T03:52:47.012Z,0.60
2019-05-16T03:55:14.384Z,0.70
2019-05-16T03:57:42.049Z,0.70
2019-05-16T04:00:11.754Z,0.93
2019-05-16T04:02:41.996Z,0.80
2019-05-16T04:05:10.903Z,0.87
2019-05-16T04:07:36.873Z,0.90
2019-05-16T04:10:05.816Z,0.70
2019-05-16T04:12:33.087Z,0.87
2019-05-16T04:15:01.728Z,0.83
2019-05-16T04:17:31.793Z,0.70
2019-05-16T04:20:01.554Z,0.80
2019-05-16T04:22:27.639Z,0.90
2019-05-16T04:24:54.900Z,0.80
2019-05-16T04:27:22.161Z,0.80
2019-05-16T04:29:51.314Z,0.77
2019-05-16T04:32:20.909Z,0.80
2019-05-16T04:34:50.934Z,0.90
2019-05-16T04:37:16.785Z,1.80
2019-05-16T04:39:44.051Z,1.17
2019-05-16T04:42:11.434Z,0.97
2019-05-16T04:44:41.640Z,0.90
2019-05-16T04:47:10.759Z,0.77
2019-05-16T04:49:36.768Z,0.60
2019-05-16T04:52:04.246Z,0.77
2019-05-16T04:54:31.508Z,0.80
2019-05-16T04:57:01.486Z,1.00
2019-05-16T04:59:30.921Z,0.80
2019-05-16T05:01:56.901Z,0.83
2019-05-16T05:04:24.190Z,0.73
2019-05-16T05:06:52.636Z,0.90
2019-05-16T05:09:21.021Z,0.70
2019-05-16T05:11:51.697Z,0.80
2019-05-16T05:14:17.489Z,0.70
2019-05-16T05:16:44.780Z,0.80
2019-05-16T05:19:12.045Z,0.60
2019-05-16T05:21:40.933Z,0.80
2019-05-16T05:24:10.681Z,2.40
2019-05-16T05:26:37.726Z,4.40
2019-05-16T05:29:05.081Z,4.77
2019-05-16T05:31:35.354Z,4.30
2019-05-16T05:34:01.449Z,5.10
2019-05-16T05:36:30.067Z,5.37
2019-05-16T05:39:08.921Z,5.40
2019-05-16T05:41:26.537Z,5.40
2019-05-16T05:43:54.559Z,5.17
2019-05-16T05:46:22.017Z,5.03
2019-05-16T05:48:50.480Z,4.90
2019-05-16T05:51:20.553Z,4.30
2019-05-16T05:53:47.135Z,4.77
2019-05-16T05:56:14.396Z,5.27
2019-05-16T05:58:41.675Z,3.87
2019-05-16T06:01:11.172Z,4.30
2019-05-16T06:03:39.897Z,4.07
2019-05-16T06:06:07.017Z,4.57
2019-05-16T06:08:34.474Z,4.70
2019-05-16T06:11:02.022Z,5.60
2019-05-16T06:13:31.027Z,4.77
2019-05-16T06:16:00.193Z,5.30
2019-05-16T06:18:27.397Z,4.90
2019-05-16T06:20:54.666Z,4.93
2019-05-16T06:23:21.981Z,4.80
2019-05-16T06:25:50.425Z,5.50
2019-05-16T06:28:20.554Z,4.47
2019-05-16T06:30:47.405Z,5.37
2019-05-16T06:33:14.675Z,5.87
2019-05-16T06:35:41.948Z,5.10
2019-05-16T06:38:09.986Z,4.93
2019-05-16T06:40:37.577Z,4.70
2019-05-16T06:43:05.048Z,4.20
2019-05-16T06:45:32.461Z,4.90
2019-05-16T06:48:00.727Z,4.50
2019-05-16T06:50:29.745Z,4.23
2019-05-16T06:52:57.449Z,4.00
2019-05-16T06:55:24.718Z,3.73
2019-05-16T06:57:51.991Z,3.73
2019-05-16T07:00:20.981Z,3.60
2019-05-16T07:02:50.009Z,3.73
2019-05-16T07:05:17.694Z,3.00
2019-05-16T07:07:45.004Z,3.40
2019-05-16T07:10:13.022Z,2.87
2019-05-16T07:12:41.327Z,3.00
2019-05-16T07:15:12.420Z,2.80
2019-05-16T07:17:39.797Z,3.20
2019-05-16T07:20:10.183Z,2.97
2019-05-16T07:22:36.727Z,3.70
2019-05-16T07:25:05.666Z,3.17
2019-05-16T07:27:32.942Z,3.53
2019-05-16T07:30:01.112Z,3.10
2019-05-16T07:32:30.230Z,3.40
2019-05-16T07:34:57.705Z,3.20
2019-05-16T07:37:25.661Z,3.23
2019-05-16T07:39:53.275Z,3.53
2019-05-16T07:42:20.585Z,3.17
2019-05-16T07:44:50.639Z,2.50
2019-05-16T07:47:17.033Z,2.57
2019-05-16T07:49:44.331Z,3.00
2019-05-16T07:52:11.601Z,3.90
2019-05-16T07:54:40.392Z,2.57
2019-05-16T07:57:16.170Z,2.00
2019-05-16T07:59:37.098Z,2.77
2019-05-16T08:02:04.434Z,2.60
2019-05-16T08:04:31.745Z,2.63
2019-05-16T08:07:00.714Z,2.23
2019-05-16T08:09:30.432Z,3.53
2019-05-16T08:11:57.281Z,2.40
2019-05-16T08:14:24.556Z,2.63
2019-05-16T08:16:51.838Z,2.80
2019-05-16T08:19:20.006Z,2.40
2019-05-16T08:21:50.363Z,2.73
2019-05-16T08:24:19.869Z,2.60
2019-05-16T08:26:46.253Z,2.67
2019-05-16T08:29:13.760Z,2.83
2019-05-16T08:31:42.961Z,2.70
2019-05-16T08:34:12.234Z,2.60
2019-05-16T08:36:41.037Z,2.77
2019-05-16T08:39:10.869Z,2.70
2019-05-16T08:41:37.499Z,2.80
2019-05-16T08:44:04.877Z,2.60
2019-05-16T08:46:32.596Z,2.33
2019-05-16T08:49:01.075Z,2.10
2019-05-16T08:51:32.815Z,2.40
2019-05-16T08:54:01.297Z,2.00
2019-05-16T08:56:26.717Z,2.10
2019-05-16T08:58:54.343Z,2.10
2019-05-16T09:01:21.951Z,2.23
2019-05-16T09:03:52.035Z,2.10
2019-05-16T09:06:22.506Z,2.33
2019-05-16T09:08:47.364Z,2.30
2019-05-16T09:11:33.816Z,2.30
2019-05-16T09:13:43.942Z,2.73
2019-05-16T09:16:11.428Z,2.77
2019-05-16T09:18:40.971Z,2.23
2019-05-16T09:21:07.863Z,2.40
2019-05-16T09:23:38.082Z,2.10
2019-05-16T09:26:07.182Z,2.50
2019-05-16T09:28:33.193Z,2.33
2019-05-16T09:31:00.517Z,2.40
2019-05-16T09:33:27.972Z,2.60
2019-05-16T09:35:57.298Z,2.57
2019-05-16T09:38:27.930Z,2.30
2019-05-16T09:40:53.707Z,2.60
2019-05-16T09:43:21.073Z,2.50
2019-05-16T09:45:48.364Z,2.67
2019-05-16T09:48:18.804Z,2.60
2019-05-16T09:50:46.810Z,2.17
2019-05-16T09:53:13.800Z,2.37
2019-05-16T09:55:41.220Z,2.20
2019-05-16T09:58:08.534Z,2.23
2019-05-16T10:00:37.339Z,2.30
2019-05-16T10:03:07.122Z,2.50
2019-05-16T10:05:36.976Z,2.90
2019-05-16T10:08:03.634Z,2.47
2019-05-16T10:10:30.896Z,2.03
2019-05-16T10:12:58.181Z,2.23
2019-05-16T10:15:26.992Z,2.47
2019-05-16T10:17:57.345Z,2.20
2019-05-16T10:20:23.561Z,2.67
2019-05-16T10:22:50.860Z,2.17
2019-05-16T10:25:19.599Z,2.73
2019-05-16T10:27:47.666Z,2.33
2019-05-16T10:30:17.585Z,2.60
2019-05-16T10:32:47.203Z,2.73
2019-05-16T10:35:14.257Z,2.70
2019-05-16T10:37:41.529Z,2.53
2019-05-16T10:40:09.101Z,2.43
2019-05-16T10:42:38.061Z,2.90
2019-05-16T10:45:08.710Z,2.60
2019-05-16T10:47:37.109Z,2.70
2019-05-16T10:50:05.069Z,2.77
2019-05-16T10:52:32.341Z,2.60
2019-05-16T10:55:02.468Z,2.73
2019-05-16T10:57:29.941Z,2.73
2019-05-16T11:00:09.291Z,2.97
2019-05-16T11:02:27.512Z,2.83
2019-05-16T11:05:14.258Z,2.70
2019-05-16T11:07:24.169Z,2.80
2019-05-16T11:09:58.386Z,2.67
2019-05-16T11:12:20.676Z,2.53
2019-05-16T11:14:48.226Z,2.63
2019-05-16T11:17:18.811Z,2.60
2019-05-16T11:19:46.594Z,2.83
2019-05-16T11:22:13.614Z,3.17
2019-05-16T11:24:40.932Z,2.60
2019-05-16T11:27:08.349Z,3.10
2019-05-16T11:29:36.633Z,2.90
2019-05-16T11:32:06.610Z,2.77
2019-05-16T11:34:33.082Z,2.97
2019-05-16T11:37:00.882Z,2.67
2019-05-16T11:39:28.153Z,3.30
2019-05-16T11:41:57.068Z,2.47
2019-05-16T11:44:28.139Z,2.23
2019-05-16T11:46:53.538Z,2.73
2019-05-16T11:49:20.878Z,2.27
2019-05-16T11:51:48.149Z,2.23
2019-05-16T11:54:15.496Z,2.50
2019-05-16T11:56:42.806Z,2.40
2019-05-16T11:59:10.073Z,2.37
2019-05-16T12:01:37.341Z,2.23
2019-05-16T12:04:04.699Z,2.40
2019-05-16T12:06:31.965Z,2.40
2019-05-16T12:08:59.237Z,2.57
2019-05-16T12:11:27.425Z,1.97
2019-05-16T12:13:56.729Z,2.27
2019-05-16T12:16:23.893Z,1.80
2019-05-16T12:18:51.201Z,1.70
2019-05-16T12:21:18.477Z,1.90
2019-05-16T12:23:47.313Z,2.00
2019-05-16T12:26:17.380Z,1.70
2019-05-16T12:28:43.820Z,2.60
2019-05-16T12:31:11.202Z,2.00
2019-05-16T12:33:38.511Z,2.20
2019-05-16T12:36:07.272Z,2.37
2019-05-16T12:38:37.651Z,2.40
2019-05-16T12:41:04.057Z,2.43
2019-05-16T12:43:44.909Z,2.53
2019-05-16T12:46:00.425Z,2.20
2019-05-16T12:48:27.694Z,2.30
2019-05-16T12:50:58.656Z,2.20
2019-05-16T12:53:31.713Z,2.70
2019-05-16T12:55:53.089Z,2.40
2019-05-16T12:58:26.107Z,2.33
2019-05-16T13:00:57.787Z,2.30
2019-05-16T13:03:18.443Z,2.60
2019-05-16T13:05:47.761Z,2.40
2019-05-16T13:08:17.234Z,2.77
2019-05-16T13:10:43.789Z,2.50
2019-05-16T13:13:11.145Z,3.00
2019-05-16T13:15:41.831Z,3.00
2019-05-16T13:18:08.129Z,2.80
2019-05-16T13:20:38.336Z,2.97
2019-05-16T13:23:13.889Z,3.03
2019-05-16T13:25:33.701Z,2.83
2019-05-16T13:28:01.039Z,2.90
2019-05-16T13:30:28.448Z,2.77
2019-05-16T13:32:56.545Z,2.70
2019-05-16T13:35:23.941Z,3.57
2019-05-16T13:37:51.397Z,2.73
2019-05-16T13:40:18.982Z,3.13
2019-05-16T13:42:48.021Z,3.00
2019-05-16T13:45:17.836Z,3.07
2019-05-16T13:47:44.981Z,2.73
2019-05-16T13:50:12.809Z,2.93
2019-05-16T13:52:40.153Z,3.27
2019-05-16T13:55:07.710Z,3.10
2019-05-16T13:57:37.121Z,2.87
2019-05-16T14:00:07.990Z,2.87
2019-05-16T14:02:37.526Z,3.83
2019-05-16T14:05:07.541Z,3.40
2019-05-16T14:07:37.537Z,3.40
2019-05-16T14:10:07.381Z,3.20
2019-05-16T14:12:36.728Z,3.20
2019-05-16T14:15:08.007Z,3.17
2019-05-16T14:17:36.786Z,3.37
2019-05-16T14:20:13.777Z,3.60
2019-05-16T14:22:34.389Z,3.37
2019-05-16T14:25:01.748Z,3.77
2019-05-16T14:27:29.156Z,3.90
2019-05-16T14:29:57.831Z,3.23
2019-05-16T14:32:25.365Z,4.07
2019-05-16T14:34:52.696Z,4.23
2019-05-16T14:37:20.053Z,3.53
2019-05-16T14:39:48.783Z,4.07
2019-05-16T14:42:17.792Z,4.10
2019-05-16T14:45:03.619Z,3.70
2019-05-16T14:47:14.290Z,4.00
2019-05-16T14:49:41.559Z,4.43
2019-05-16T14:52:08.869Z,4.37
2019-05-16T14:54:37.795Z,6.43
2019-05-16T14:57:05.181Z,6.73
2019-05-16T14:59:32.560Z,4.40
2019-05-16T15:01:59.879Z,3.90
2019-05-16T15:04:30.161Z,4.13
2019-05-16T15:06:57.297Z,3.80
2019-05-16T15:09:27.143Z,4.10
2019-05-16T15:11:53.727Z,3.37
2019-05-16T15:14:21.025Z,3.70
2019-05-16T15:16:51.739Z,3.70
2019-05-16T15:19:17.626Z,3.20
2019-05-16T15:21:47.406Z,3.47
2019-05-16T15:24:13.969Z,3.60
2019-05-16T15:26:41.276Z,3.20
2019-05-16T15:29:08.581Z,3.33
2019-05-16T15:31:36.323Z,2.90
2019-05-16T15:34:04.832Z,3.10
2019-05-16T15:36:32.121Z,3.40
2019-05-16T15:38:59.646Z,3.20
2019-05-16T15:41:27.330Z,2.73
2019-05-16T15:43:59.028Z,3.50
2019-05-16T15:46:26.450Z,3.20
2019-05-16T15:48:53.113Z,4.20
2019-05-16T15:51:21.970Z,3.40
2019-05-16T15:53:49.409Z,3.47
2019-05-16T15:56:17.863Z,3.60
2019-05-16T15:58:46.652Z,3.40
2019-05-16T16:01:14.080Z,3.43
2019-05-16T16:03:41.358Z,3.13
2019-05-16T16:06:08.730Z,3.60
2019-05-16T16:08:37.422Z,3.40
2019-05-16T16:11:07.357Z,3.50
2019-05-16T16:13:34.049Z,3.27
2019-05-16T16:16:01.318Z,3.70
2019-05-16T16:18:28.660Z,3.60
2019-05-16T16:20:57.033Z,3.63
2019-05-16T16:23:27.075Z,4.07
2019-05-16T16:25:53.614Z,3.83
2019-05-16T16:28:20.881Z,4.13
2019-05-16T16:30:48.212Z,4.10
2019-05-16T16:33:22.516Z,3.73
2019-05-16T16:35:44.508Z,4.00
2019-05-16T16:38:16.791Z,3.50
2019-05-16T16:40:43.148Z,4.67
2019-05-16T16:43:10.506Z,4.33
2019-05-16T16:45:37.772Z,3.70
2019-05-16T16:48:07.609Z,4.03
2019-05-16T16:50:36.931Z,4.10
2019-05-16T16:53:03.422Z,4.00
2019-05-16T16:55:30.765Z,3.30
2019-05-16T16:57:59.641Z,4.50
2019-05-16T17:00:28.037Z,4.60
2019-05-16T17:03:03.201Z,5.30
2019-05-16T17:05:28.163Z,4.70
2019-05-16T17:07:57.135Z,4.43
2019-05-16T17:10:27.341Z,4.23
2019-05-16T17:12:53.777Z,4.00
2019-05-16T17:15:21.219Z,4.00
2019-05-16T17:17:48.852Z,4.73
2019-05-16T17:20:16.515Z,4.50
2019-05-16T17:22:43.893Z,4.37
2019-05-16T17:25:12.265Z,5.37
2019-05-16T17:27:39.558Z,5.23
2019-05-16T17:30:08.369Z,4.83
2019-05-16T17:32:35.645Z,4.83
2019-05-16T17:35:03.106Z,4.57
2019-05-16T17:37:32.008Z,4.53
2019-05-16T17:39:59.357Z,3.77
2019-05-16T17:42:27.200Z,4.57
2019-05-16T17:44:56.585Z,4.40
2019-05-16T17:47:26.160Z,4.30
2019-05-16T17:49:52.816Z,4.40
2019-05-16T17:52:20.093Z,5.10
2019-05-16T17:54:47.417Z,4.33
2019-05-16T17:57:16.782Z,4.10
2019-05-16T17:59:47.936Z,4.53
2019-05-16T18:02:17.263Z,4.27
2019-05-16T18:04:46.983Z,4.70
2019-05-16T18:07:13.749Z,3.77
2019-05-16T18:09:43.004Z,3.90
2019-05-16T18:12:10.112Z,4.20
2019-05-16T18:14:37.457Z,4.00
2019-05-16T18:17:07.269Z,4.13
2019-05-16T18:19:33.837Z,4.37
2019-05-16T18:22:01.113Z,4.37
2019-05-16T18:24:28.394Z,4.17
2019-05-16T18:26:57.165Z,3.80
2019-05-16T18:29:26.793Z,4.17
2019-05-16T18:31:53.629Z,4.20
2019-05-16T18:34:21.003Z,4.63
2019-05-16T18:36:48.444Z,4.90
2019-05-16T18:39:15.749Z,4.57
2019-05-16T18:41:43.054Z,3.50
2019-05-16T18:44:10.322Z,3.73
2019-05-16T18:46:37.594Z,3.60
2019-05-16T18:49:07.088Z,3.73
2019-05-16T18:51:36.882Z,3.27
2019-05-16T18:54:04.045Z,3.17
2019-05-16T18:56:31.322Z,3.67
2019-05-16T18:58:58.590Z,4.27
2019-05-16T19:01:26.910Z,4.17
2019-05-16T19:03:54.405Z,4.70
2019-05-16T19:06:21.669Z,3.90
2019-05-16T19:08:48.944Z,3.27
2019-05-16T19:11:17.542Z,3.83
2019-05-16T19:13:47.291Z,3.37
2019-05-16T19:16:13.986Z,3.43
2019-05-16T19:18:41.262Z,4.10
2019-05-16T19:21:08.528Z,3.53
2019-05-16T19:23:37.592Z,3.60
2019-05-16T19:26:07.164Z,3.70
2019-05-16T19:28:34.009Z,4.10
2019-05-16T19:31:01.386Z,4.83
2019-05-16T19:33:28.661Z,5.00
2019-05-16T19:35:56.754Z,5.23
2019-05-16T19:38:28.949Z,4.50
2019-05-16T19:40:53.027Z,5.10
2019-05-16T19:43:20.292Z,4.07
2019-05-16T19:45:47.618Z,4.90
2019-05-16T19:48:17.307Z,4.90
2019-05-16T19:50:46.233Z,4.70
2019-05-16T19:53:12.948Z,4.10
2019-05-16T19:55:40.244Z,5.00
2019-05-16T19:58:07.513Z,4.30
2019-05-16T20:00:37.180Z,4.90
2019-05-16T20:03:03.793Z,5.23
2019-05-16T20:05:31.085Z,4.90
2019-05-16T20:07:58.373Z,4.80
2019-05-16T20:10:27.089Z,4.40
2019-05-16T20:12:56.775Z,5.20
2019-05-16T20:15:23.689Z,4.70
2019-05-16T20:17:54.206Z,4.73
2019-05-16T20:20:20.085Z,4.57
2019-05-16T20:22:47.423Z,4.37
2019-05-16T20:25:16.402Z,4.80
2019-05-16T20:27:43.860Z,5.23
2019-05-16T20:30:11.296Z,5.77
2019-05-16T20:32:38.733Z,4.97
2019-05-16T20:35:08.977Z,6.00
2019-05-16T20:37:36.717Z,5.13
2019-05-16T20:40:08.444Z,5.30
2019-05-16T20:42:36.383Z,5.40
2019-05-16T20:45:04.245Z,6.00
2019-05-16T20:47:31.512Z,5.60
2019-05-16T20:49:58.975Z,5.40
2019-05-16T20:52:26.871Z,6.00
2019-05-16T20:54:54.497Z,5.90
2019-05-16T20:57:21.853Z,5.40
2019-05-16T20:59:49.282Z,6.57
2019-05-16T21:02:16.631Z,6.50
2019-05-16T21:04:43.973Z,6.60
2019-05-16T21:07:11.561Z,6.70
2019-05-16T21:09:39.169Z,6.93
2019-05-16T21:12:08.249Z,6.50
2019-05-16T21:14:35.781Z,7.00
2019-05-16T21:17:03.072Z,7.30
2019-05-16T21:19:30.418Z,7.57
2019-05-16T21:21:57.709Z,7.90
2019-05-16T21:24:26.738Z,7.03
2019-05-16T21:26:54.158Z,7.70
2019-05-16T21:29:21.428Z,8.00
2019-05-16T21:31:49.073Z,7.03
2019-05-16T21:34:19.099Z,7.37
2019-05-16T21:36:46.961Z,7.27
2019-05-16T21:39:14.546Z,7.87
2019-05-16T21:41:41.846Z,7.77
2019-05-16T21:44:09.131Z,7.30
2019-05-16T21:46:36.619Z,7.87
2019-05-16T21:49:03.957Z,7.73
2019-05-16T21:51:31.298Z,8.80
2019-05-16T21:53:58.592Z,8.37
2019-05-16T21:56:26.614Z,7.97
2019-05-16T21:58:54.083Z,7.37
2019-05-16T22:01:21.977Z,8.80
2019-05-16T22:03:49.363Z,8.27
2019-05-16T22:06:16.721Z,8.80
2019-05-16T22:08:44.104Z,8.17
2019-05-16T22:11:11.682Z,8.77
2019-05-16T22:13:38.950Z,7.50
2019-05-16T22:16:08.156Z,8.67
2019-05-16T22:18:38.047Z,8.73
2019-05-16T22:21:07.385Z,8.20
2019-05-16T22:23:33.721Z,8.57
2019-05-16T22:26:00.988Z,8.30
2019-05-16T22:28:30.100Z,8.30
2019-05-16T22:30:58.480Z,8.10
2019-05-16T22:33:26.792Z,7.93
2019-05-16T22:35:54.094Z,10.37
2019-05-16T22:38:21.368Z,9.30
2019-05-16T22:40:48.637Z,8.87
2019-05-16T22:43:17.385Z,9.17
2019-05-16T22:45:46.791Z,8.30
2019-05-16T22:48:13.903Z,8.57
2019-05-16T22:50:41.213Z,8.50
2019-05-16T22:53:08.477Z,8.93
2019-05-16T22:55:37.125Z,8.60
2019-05-16T22:58:07.043Z,8.80
2019-05-16T23:00:33.951Z,9.07
2019-05-16T23:03:01.226Z,8.83
2019-05-16T23:05:28.529Z,9.10
2019-05-16T23:08:05.701Z,8.70
2019-05-16T23:10:25.779Z,7.57
2019-05-16T23:12:53.813Z,8.13
2019-05-16T23:15:21.169Z,9.07
2019-05-16T23:17:48.505Z,8.33
2019-05-16T23:20:17.129Z,8.40
2019-05-16T23:22:46.823Z,8.57
2019-05-16T23:25:13.750Z,8.40
2019-05-16T23:27:41.017Z,9.60
2019-05-16T23:30:08.752Z,8.87
2019-05-16T23:32:36.499Z,9.97
2019-05-16T23:35:07.402Z,8.60
2019-05-16T23:37:36.803Z,9.43
2019-05-16T23:40:06.379Z,9.40
2019-05-16T23:42:33.796Z,8.67
2019-05-16T23:45:01.064Z,8.47
2019-05-16T23:47:28.344Z,8.60
2019-05-16T23:49:56.795Z,9.67
2019-05-16T23:52:24.300Z,8.87
2019-05-16T23:54:51.723Z,9.50
2019-05-16T23:57:19.021Z,9.07
2019-05-16T23:59:47.297Z,9.37
